sensor_id;sensor_type;location;lat;lon;timestamp;P1;durP1;ratioP1;P2;durP2;ratioP2
53267;SDS011;39156;51.176;6.738;2023-09-30T00:01:44;45.28;;;42.17;;
53267;SDS011;39156;51.176;6.738;2023-09-30T00:04:10;40.50;;;37.80;;
53267;SDS011;39156;51.176;6.738;2023-09-30T00:06:36;42.28;;;39.63;;
53267;SDS011;39156;51.176;6.738;2023-09-30T00:09:02;45.03;;;42.15;;
53267;SDS011;39156;51.176;6.738;2023-09-30T00:11:28;42.50;;;39.95;;
53267;SDS011;39156;51.176;6.738;2023-09-30T00:13:53;42.38;;;39.78;;
53267;SDS011;39156;51.176;6.738;2023-09-30T00:16:19;41.95;;;39.35;;
53267;SDS011;39156;51.176;6.738;2023-09-30T00:18:45;40.42;;;37.92;;
53267;SDS011;39156;51.176;6.738;2023-09-30T00:21:11;41.60;;;39.08;;
53267;SDS011;39156;51.176;6.738;2023-09-30T00:23:37;40.38;;;37.78;;
53267;SDS011;39156;51.176;6.738;2023-09-30T00:26:03;43.85;;;40.88;;
53267;SDS011;39156;51.176;6.738;2023-09-30T00:28:30;41.90;;;39.35;;
53267;SDS011;39156;51.176;6.738;2023-09-30T00:30:55;42.70;;;40.00;;
53267;SDS011;39156;51.176;6.738;2023-09-30T00:33:21;40.28;;;37.67;;
53267;SDS011;39156;51.176;6.738;2023-09-30T00:35:47;43.95;;;41.20;;
53267;SDS011;39156;51.176;6.738;2023-09-30T00:38:12;40.70;;;38.22;;
53267;SDS011;39156;51.176;6.738;2023-09-30T00:40:39;40.55;;;37.92;;
53267;SDS011;39156;51.176;6.738;2023-09-30T00:43:04;41.85;;;39.13;;
53267;SDS011;39156;51.176;6.738;2023-09-30T00:45:30;42.35;;;39.72;;
53267;SDS011;39156;51.176;6.738;2023-09-30T00:47:56;39.35;;;36.92;;
53267;SDS011;39156;51.176;6.738;2023-09-30T00:50:22;42.92;;;40.15;;
53267;SDS011;39156;51.176;6.738;2023-09-30T00:52:48;41.85;;;39.08;;
53267;SDS011;39156;51.176;6.738;2023-09-30T00:55:14;43.13;;;40.40;;
53267;SDS011;39156;51.176;6.738;2023-09-30T00:57:41;42.25;;;39.53;;
53267;SDS011;39156;51.176;6.738;2023-09-30T01:00:08;42.28;;;39.67;;
53267;SDS011;39156;51.176;6.738;2023-09-30T01:02:37;41.20;;;38.70;;
53267;SDS011;39156;51.176;6.738;2023-09-30T01:05:06;40.25;;;37.63;;
53267;SDS011;39156;51.176;6.738;2023-09-30T01:07:33;43.90;;;41.08;;
53267;SDS011;39156;51.176;6.738;2023-09-30T01:09:59;42.17;;;39.38;;
53267;SDS011;39156;51.176;6.738;2023-09-30T01:12:26;40.08;;;37.78;;
53267;SDS011;39156;51.176;6.738;2023-09-30T01:14:56;40.97;;;38.45;;
53267;SDS011;39156;51.176;6.738;2023-09-30T01:17:24;43.13;;;40.25;;
53267;SDS011;39156;51.176;6.738;2023-09-30T01:19:50;42.13;;;39.55;;
53267;SDS011;39156;51.176;6.738;2023-09-30T01:22:17;42.47;;;39.70;;
53267;SDS011;39156;51.176;6.738;2023-09-30T01:24:43;41.05;;;38.53;;
53267;SDS011;39156;51.176;6.738;2023-09-30T01:27:09;40.70;;;38.30;;
53267;SDS011;39156;51.176;6.738;2023-09-30T01:29:35;42.92;;;40.13;;
53267;SDS011;39156;51.176;6.738;2023-09-30T01:32:03;41.17;;;38.78;;
53267;SDS011;39156;51.176;6.738;2023-09-30T01:34:33;39.63;;;37.20;;
53267;SDS011;39156;51.176;6.738;2023-09-30T01:37:00;41.10;;;38.67;;
53267;SDS011;39156;51.176;6.738;2023-09-30T01:39:25;41.58;;;38.83;;
53267;SDS011;39156;51.176;6.738;2023-09-30T01:41:51;43.92;;;41.30;;
53267;SDS011;39156;51.176;6.738;2023-09-30T01:44:17;43.08;;;40.33;;
53267;SDS011;39156;51.176;6.738;2023-09-30T01:46:42;41.03;;;38.50;;
53267;SDS011;39156;51.176;6.738;2023-09-30T01:49:08;42.22;;;39.63;;
53267;SDS011;39156;51.176;6.738;2023-09-30T01:51:34;40.75;;;38.35;;
53267;SDS011;39156;51.176;6.738;2023-09-30T01:54:00;43.25;;;40.55;;
53267;SDS011;39156;51.176;6.738;2023-09-30T01:56:26;43.78;;;40.70;;
53267;SDS011;39156;51.176;6.738;2023-09-30T01:58:51;40.83;;;38.13;;
53267;SDS011;39156;51.176;6.738;2023-09-30T02:01:17;45.65;;;42.55;;
53267;SDS011;39156;51.176;6.738;2023-09-30T02:03:43;42.30;;;39.55;;
53267;SDS011;39156;51.176;6.738;2023-09-30T02:06:09;43.45;;;40.80;;
53267;SDS011;39156;51.176;6.738;2023-09-30T02:08:35;43.17;;;40.63;;
53267;SDS011;39156;51.176;6.738;2023-09-30T02:11:01;43.13;;;40.42;;
53267;SDS011;39156;51.176;6.738;2023-09-30T02:13:31;40.28;;;37.67;;
53267;SDS011;39156;51.176;6.738;2023-09-30T02:16:02;41.42;;;38.97;;
53267;SDS011;39156;51.176;6.738;2023-09-30T02:18:28;42.25;;;39.55;;
53267;SDS011;39156;51.176;6.738;2023-09-30T02:20:57;41.53;;;38.85;;
53267;SDS011;39156;51.176;6.738;2023-09-30T02:23:24;40.33;;;37.97;;
53267;SDS011;39156;51.176;6.738;2023-09-30T02:25:50;41.58;;;39.15;;
53267;SDS011;39156;51.176;6.738;2023-09-30T02:28:16;42.30;;;39.58;;
53267;SDS011;39156;51.176;6.738;2023-09-30T02:30:41;41.90;;;39.30;;
53267;SDS011;39156;51.176;6.738;2023-09-30T02:33:07;42.13;;;39.72;;
53267;SDS011;39156;51.176;6.738;2023-09-30T02:35:33;40.33;;;37.92;;
53267;SDS011;39156;51.176;6.738;2023-09-30T02:37:59;40.83;;;38.20;;
53267;SDS011;39156;51.176;6.738;2023-09-30T02:40:25;40.78;;;38.35;;
53267;SDS011;39156;51.176;6.738;2023-09-30T02:42:51;42.03;;;39.35;;
53267;SDS011;39156;51.176;6.738;2023-09-30T02:45:17;42.35;;;39.75;;
53267;SDS011;39156;51.176;6.738;2023-09-30T02:47:42;41.20;;;38.75;;
53267;SDS011;39156;51.176;6.738;2023-09-30T02:50:09;42.83;;;40.13;;
53267;SDS011;39156;51.176;6.738;2023-09-30T02:52:38;43.30;;;40.40;;
53267;SDS011;39156;51.176;6.738;2023-09-30T02:57:35;40.83;;;38.03;;
53267;SDS011;39156;51.176;6.738;2023-09-30T03:00:02;42.73;;;40.03;;
53267;SDS011;39156;51.176;6.738;2023-09-30T03:02:54;41.38;;;38.70;;
53267;SDS011;39156;51.176;6.738;2023-09-30T03:05:21;39.78;;;37.28;;
53267;SDS011;39156;51.176;6.738;2023-09-30T03:07:48;42.55;;;39.75;;
53267;SDS011;39156;51.176;6.738;2023-09-30T03:10:17;42.78;;;39.95;;
53267;SDS011;39156;51.176;6.738;2023-09-30T03:12:48;41.90;;;39.20;;
53267;SDS011;39156;51.176;6.738;2023-09-30T03:15:20;41.13;;;38.45;;
53267;SDS011;39156;51.176;6.738;2023-09-30T03:17:45;42.00;;;39.40;;
53267;SDS011;39156;51.176;6.738;2023-09-30T03:20:11;42.72;;;40.13;;
53267;SDS011;39156;51.176;6.738;2023-09-30T03:22:39;41.50;;;39.00;;
53267;SDS011;39156;51.176;6.738;2023-09-30T03:25:11;41.40;;;39.03;;
53267;SDS011;39156;51.176;6.738;2023-09-30T03:27:40;42.22;;;39.53;;
53267;SDS011;39156;51.176;6.738;2023-09-30T03:30:06;42.88;;;40.28;;
53267;SDS011;39156;51.176;6.738;2023-09-30T03:32:34;43.28;;;40.50;;
53267;SDS011;39156;51.176;6.738;2023-09-30T03:35:03;42.72;;;39.75;;
53267;SDS011;39156;51.176;6.738;2023-09-30T03:37:31;41.08;;;38.42;;
53267;SDS011;39156;51.176;6.738;2023-09-30T03:39:57;43.60;;;40.80;;
53267;SDS011;39156;51.176;6.738;2023-09-30T03:42:23;43.53;;;40.83;;
53267;SDS011;39156;51.176;6.738;2023-09-30T03:44:49;41.45;;;38.95;;
53267;SDS011;39156;51.176;6.738;2023-09-30T03:47:18;41.92;;;39.22;;
53267;SDS011;39156;51.176;6.738;2023-09-30T03:49:44;41.78;;;39.15;;
53267;SDS011;39156;51.176;6.738;2023-09-30T03:52:11;43.58;;;40.50;;
53267;SDS011;39156;51.176;6.738;2023-09-30T03:54:37;42.85;;;39.85;;
53267;SDS011;39156;51.176;6.738;2023-09-30T03:57:03;43.10;;;39.85;;
53267;SDS011;39156;51.176;6.738;2023-09-30T03:59:29;44.20;;;41.40;;
53267;SDS011;39156;51.176;6.738;2023-09-30T04:01:55;43.42;;;40.88;;
53267;SDS011;39156;51.176;6.738;2023-09-30T04:04:22;41.17;;;38.60;;
53267;SDS011;39156;51.176;6.738;2023-09-30T04:06:49;43.85;;;41.08;;
53267;SDS011;39156;51.176;6.738;2023-09-30T04:11:42;42.28;;;39.53;;
53267;SDS011;39156;51.176;6.738;2023-09-30T04:14:08;43.10;;;40.40;;
53267;SDS011;39156;51.176;6.738;2023-09-30T04:16:34;44.17;;;41.03;;
53267;SDS011;39156;51.176;6.738;2023-09-30T04:19:02;41.95;;;39.28;;
53267;SDS011;39156;51.176;6.738;2023-09-30T04:21:28;44.17;;;41.25;;
53267;SDS011;39156;51.176;6.738;2023-09-30T04:23:58;42.17;;;39.47;;
53267;SDS011;39156;51.176;6.738;2023-09-30T04:26:24;44.65;;;41.80;;
53267;SDS011;39156;51.176;6.738;2023-09-30T04:28:50;44.13;;;41.42;;
53267;SDS011;39156;51.176;6.738;2023-09-30T04:31:16;44.40;;;41.20;;
53267;SDS011;39156;51.176;6.738;2023-09-30T04:33:43;44.47;;;41.58;;
53267;SDS011;39156;51.176;6.738;2023-09-30T04:36:09;43.22;;;40.53;;
53267;SDS011;39156;51.176;6.738;2023-09-30T04:38:35;42.38;;;39.88;;
53267;SDS011;39156;51.176;6.738;2023-09-30T04:41:02;42.85;;;40.28;;
53267;SDS011;39156;51.176;6.738;2023-09-30T04:43:28;42.72;;;40.03;;
53267;SDS011;39156;51.176;6.738;2023-09-30T04:45:55;42.67;;;40.00;;
53267;SDS011;39156;51.176;6.738;2023-09-30T04:53:20;42.08;;;39.70;;
53267;SDS011;39156;51.176;6.738;2023-09-30T04:55:48;43.28;;;40.45;;
53267;SDS011;39156;51.176;6.738;2023-09-30T04:58:17;43.40;;;40.55;;
53267;SDS011;39156;51.176;6.738;2023-09-30T05:00:42;43.65;;;40.85;;
53267;SDS011;39156;51.176;6.738;2023-09-30T05:03:08;44.15;;;41.25;;
53267;SDS011;39156;51.176;6.738;2023-09-30T05:05:34;44.00;;;41.20;;
53267;SDS011;39156;51.176;6.738;2023-09-30T05:08:00;44.67;;;41.70;;
53267;SDS011;39156;51.176;6.738;2023-09-30T05:10:26;43.47;;;40.58;;
53267;SDS011;39156;51.176;6.738;2023-09-30T05:12:52;44.28;;;41.47;;
53267;SDS011;39156;51.176;6.738;2023-09-30T05:15:20;42.35;;;39.25;;
53267;SDS011;39156;51.176;6.738;2023-09-30T05:17:46;41.45;;;38.80;;
53267;SDS011;39156;51.176;6.738;2023-09-30T05:20:13;42.42;;;39.80;;
53267;SDS011;39156;51.176;6.738;2023-09-30T05:22:42;42.90;;;40.40;;
53267;SDS011;39156;51.176;6.738;2023-09-30T05:25:12;43.45;;;40.70;;
53267;SDS011;39156;51.176;6.738;2023-09-30T05:27:41;42.33;;;39.83;;
53267;SDS011;39156;51.176;6.738;2023-09-30T05:30:07;42.92;;;40.13;;
53267;SDS011;39156;51.176;6.738;2023-09-30T05:32:34;41.83;;;39.15;;
53267;SDS011;39156;51.176;6.738;2023-09-30T05:35:04;42.00;;;39.58;;
53267;SDS011;39156;51.176;6.738;2023-09-30T05:37:39;42.70;;;40.17;;
53267;SDS011;39156;51.176;6.738;2023-09-30T05:40:06;43.85;;;40.88;;
53267;SDS011;39156;51.176;6.738;2023-09-30T05:42:42;42.25;;;39.40;;
53267;SDS011;39156;51.176;6.738;2023-09-30T05:45:10;43.33;;;40.10;;
53267;SDS011;39156;51.176;6.738;2023-09-30T05:47:40;42.78;;;39.97;;
53267;SDS011;39156;51.176;6.738;2023-09-30T05:50:06;41.35;;;38.75;;
53267;SDS011;39156;51.176;6.738;2023-09-30T05:52:41;42.45;;;39.63;;
53267;SDS011;39156;51.176;6.738;2023-09-30T05:55:08;44.95;;;41.85;;
53267;SDS011;39156;51.176;6.738;2023-09-30T05:57:34;44.20;;;41.45;;
53267;SDS011;39156;51.176;6.738;2023-09-30T06:00:00;43.57;;;40.70;;
53267;SDS011;39156;51.176;6.738;2023-09-30T06:04:53;44.28;;;41.63;;
53267;SDS011;39156;51.176;6.738;2023-09-30T06:07:19;41.80;;;38.97;;
53267;SDS011;39156;51.176;6.738;2023-09-30T06:09:45;42.92;;;40.22;;
53267;SDS011;39156;51.176;6.738;2023-09-30T06:12:13;42.92;;;40.13;;
53267;SDS011;39156;51.176;6.738;2023-09-30T06:14:39;42.00;;;39.20;;
53267;SDS011;39156;51.176;6.738;2023-09-30T06:17:05;43.75;;;40.95;;
53267;SDS011;39156;51.176;6.738;2023-09-30T06:19:32;43.75;;;40.85;;
53267;SDS011;39156;51.176;6.738;2023-09-30T06:21:58;46.73;;;42.87;;
53267;SDS011;39156;51.176;6.738;2023-09-30T06:24:24;44.15;;;41.13;;
53267;SDS011;39156;51.176;6.738;2023-09-30T06:26:50;46.85;;;41.63;;
53267;SDS011;39156;51.176;6.738;2023-09-30T06:29:16;44.70;;;40.88;;
53267;SDS011;39156;51.176;6.738;2023-09-30T06:31:42;44.40;;;40.70;;
53267;SDS011;39156;51.176;6.738;2023-09-30T06:34:08;44.00;;;40.90;;
53267;SDS011;39156;51.176;6.738;2023-09-30T06:36:36;48.15;;;44.33;;
53267;SDS011;39156;51.176;6.738;2023-09-30T06:39:05;43.17;;;40.33;;
53267;SDS011;39156;51.176;6.738;2023-09-30T06:43:58;50.00;;;41.78;;
53267;SDS011;39156;51.176;6.738;2023-09-30T06:46:24;47.40;;;42.67;;
53267;SDS011;39156;51.176;6.738;2023-09-30T06:48:49;45.45;;;41.35;;
53267;SDS011;39156;51.176;6.738;2023-09-30T06:51:17;45.03;;;41.78;;
53267;SDS011;39156;51.176;6.738;2023-09-30T06:53:43;45.60;;;41.90;;
53267;SDS011;39156;51.176;6.738;2023-09-30T06:56:10;44.85;;;41.67;;
53267;SDS011;39156;51.176;6.738;2023-09-30T06:58:37;44.85;;;41.90;;
53267;SDS011;39156;51.176;6.738;2023-09-30T07:01:03;43.17;;;40.50;;
53267;SDS011;39156;51.176;6.738;2023-09-30T07:03:29;42.65;;;39.90;;
53267;SDS011;39156;51.176;6.738;2023-09-30T07:05:55;45.55;;;42.10;;
53267;SDS011;39156;51.176;6.738;2023-09-30T07:08:21;42.65;;;39.92;;
53267;SDS011;39156;51.176;6.738;2023-09-30T07:10:47;42.27;;;39.47;;
53267;SDS011;39156;51.176;6.738;2023-09-30T07:13:17;42.35;;;39.45;;
53267;SDS011;39156;51.176;6.738;2023-09-30T07:15:43;41.77;;;39.00;;
53267;SDS011;39156;51.176;6.738;2023-09-30T07:18:09;40.07;;;37.47;;
53267;SDS011;39156;51.176;6.738;2023-09-30T07:23:01;39.58;;;37.08;;
53267;SDS011;39156;51.176;6.738;2023-09-30T07:25:28;39.33;;;36.83;;
53267;SDS011;39156;51.176;6.738;2023-09-30T07:27:57;39.30;;;36.72;;
53267;SDS011;39156;51.176;6.738;2023-09-30T07:32:49;39.50;;;36.92;;
53267;SDS011;39156;51.176;6.738;2023-09-30T07:35:15;39.80;;;37.20;;
53267;SDS011;39156;51.176;6.738;2023-09-30T07:37:42;39.40;;;36.92;;
53267;SDS011;39156;51.176;6.738;2023-09-30T07:40:09;36.45;;;34.28;;
53267;SDS011;39156;51.176;6.738;2023-09-30T07:42:38;36.65;;;34.35;;
53267;SDS011;39156;51.176;6.738;2023-09-30T07:45:04;37.63;;;35.13;;
53267;SDS011;39156;51.176;6.738;2023-09-30T07:47:30;36.35;;;34.05;;
53267;SDS011;39156;51.176;6.738;2023-09-30T07:49:58;36.63;;;33.88;;
53267;SDS011;39156;51.176;6.738;2023-09-30T07:52:31;36.38;;;33.92;;
53267;SDS011;39156;51.176;6.738;2023-09-30T07:54:57;35.25;;;32.97;;
53267;SDS011;39156;51.176;6.738;2023-09-30T07:57:22;35.23;;;33.03;;
53267;SDS011;39156;51.176;6.738;2023-09-30T07:59:48;35.03;;;32.72;;
53267;SDS011;39156;51.176;6.738;2023-09-30T08:02:14;35.13;;;32.70;;
53267;SDS011;39156;51.176;6.738;2023-09-30T08:04:40;34.80;;;32.47;;
53267;SDS011;39156;51.176;6.738;2023-09-30T08:07:05;34.33;;;32.03;;
53267;SDS011;39156;51.176;6.738;2023-09-30T08:09:31;34.40;;;32.17;;
53267;SDS011;39156;51.176;6.738;2023-09-30T08:11:56;35.67;;;33.17;;
53267;SDS011;39156;51.176;6.738;2023-09-30T08:16:48;34.25;;;32.05;;
53267;SDS011;39156;51.176;6.738;2023-09-30T08:19:14;35.17;;;32.83;;
53267;SDS011;39156;51.176;6.738;2023-09-30T08:21:40;35.42;;;32.70;;
53267;SDS011;39156;51.176;6.738;2023-09-30T08:24:06;35.50;;;33.05;;
53267;SDS011;39156;51.176;6.738;2023-09-30T08:26:33;35.47;;;32.95;;
53267;SDS011;39156;51.176;6.738;2023-09-30T08:29:00;35.78;;;33.28;;
53267;SDS011;39156;51.176;6.738;2023-09-30T08:31:26;34.63;;;32.17;;
53267;SDS011;39156;51.176;6.738;2023-09-30T08:33:52;35.40;;;32.72;;
53267;SDS011;39156;51.176;6.738;2023-09-30T08:36:17;33.42;;;31.25;;
53267;SDS011;39156;51.176;6.738;2023-09-30T08:41:09;33.55;;;31.45;;
53267;SDS011;39156;51.176;6.738;2023-09-30T08:43:39;33.70;;;31.40;;
53267;SDS011;39156;51.176;6.738;2023-09-30T08:46:05;33.42;;;31.05;;
53267;SDS011;39156;51.176;6.738;2023-09-30T08:48:32;33.75;;;31.35;;
53267;SDS011;39156;51.176;6.738;2023-09-30T08:50:59;32.85;;;30.65;;
53267;SDS011;39156;51.176;6.738;2023-09-30T08:53:25;33.67;;;30.70;;
53267;SDS011;39156;51.176;6.738;2023-09-30T08:55:55;32.33;;;30.33;;
53267;SDS011;39156;51.176;6.738;2023-09-30T08:58:24;33.45;;;31.05;;
53267;SDS011;39156;51.176;6.738;2023-09-30T09:00:52;33.03;;;30.92;;
53267;SDS011;39156;51.176;6.738;2023-09-30T09:03:18;31.92;;;29.90;;
53267;SDS011;39156;51.176;6.738;2023-09-30T09:05:45;32.15;;;30.05;;
53267;SDS011;39156;51.176;6.738;2023-09-30T09:08:12;32.10;;;30.02;;
53267;SDS011;39156;51.176;6.738;2023-09-30T09:10:47;31.30;;;29.35;;
53267;SDS011;39156;51.176;6.738;2023-09-30T09:13:23;32.22;;;29.98;;
53267;SDS011;39156;51.176;6.738;2023-09-30T09:16:12;33.15;;;30.80;;
53267;SDS011;39156;51.176;6.738;2023-09-30T09:18:37;31.83;;;29.73;;
53267;SDS011;39156;51.176;6.738;2023-09-30T09:21:13;32.00;;;30.00;;
53267;SDS011;39156;51.176;6.738;2023-09-30T09:23:45;31.73;;;29.73;;
53267;SDS011;39156;51.176;6.738;2023-09-30T09:26:13;31.38;;;29.35;;
53267;SDS011;39156;51.176;6.738;2023-09-30T09:28:50;30.95;;;29.10;;
53267;SDS011;39156;51.176;6.738;2023-09-30T09:31:22;32.00;;;29.85;;
53267;SDS011;39156;51.176;6.738;2023-09-30T09:33:59;31.60;;;29.50;;
53267;SDS011;39156;51.176;6.738;2023-09-30T09:36:39;32.28;;;30.25;;
53267;SDS011;39156;51.176;6.738;2023-09-30T09:39:08;31.60;;;29.52;;
53267;SDS011;39156;51.176;6.738;2023-09-30T09:41:50;31.60;;;29.60;;
53267;SDS011;39156;51.176;6.738;2023-09-30T09:44:21;31.83;;;29.83;;
53267;SDS011;39156;51.176;6.738;2023-09-30T09:46:48;31.17;;;29.20;;
53267;SDS011;39156;51.176;6.738;2023-09-30T09:49:18;31.65;;;29.73;;
53267;SDS011;39156;51.176;6.738;2023-09-30T09:51:46;31.70;;;29.67;;
53267;SDS011;39156;51.176;6.738;2023-09-30T09:54:14;31.23;;;29.35;;
53267;SDS011;39156;51.176;6.738;2023-09-30T09:56:42;31.55;;;29.55;;
53267;SDS011;39156;51.176;6.738;2023-09-30T09:59:13;33.10;;;31.00;;
53267;SDS011;39156;51.176;6.738;2023-09-30T10:01:40;32.53;;;30.35;;
53267;SDS011;39156;51.176;6.738;2023-09-30T10:04:07;33.70;;;31.50;;
53267;SDS011;39156;51.176;6.738;2023-09-30T10:06:36;31.45;;;29.63;;
53267;SDS011;39156;51.176;6.738;2023-09-30T10:09:05;34.10;;;31.88;;
53267;SDS011;39156;51.176;6.738;2023-09-30T10:11:35;33.63;;;31.13;;
53267;SDS011;39156;51.176;6.738;2023-09-30T10:14:03;31.90;;;29.90;;
53267;SDS011;39156;51.176;6.738;2023-09-30T10:19:09;32.72;;;30.75;;
53267;SDS011;39156;51.176;6.738;2023-09-30T10:21:40;32.75;;;30.85;;
53267;SDS011;39156;51.176;6.738;2023-09-30T10:24:54;32.42;;;30.42;;
53267;SDS011;39156;51.176;6.738;2023-09-30T10:32:14;31.13;;;29.23;;
53267;SDS011;39156;51.176;6.738;2023-09-30T10:37:23;32.45;;;30.45;;
53267;SDS011;39156;51.176;6.738;2023-09-30T10:39:53;32.78;;;30.80;;
53267;SDS011;39156;51.176;6.738;2023-09-30T10:45:41;33.38;;;31.35;;
53267;SDS011;39156;51.176;6.738;2023-09-30T10:51:13;32.67;;;30.67;;
53267;SDS011;39156;51.176;6.738;2023-09-30T10:53:52;33.60;;;31.52;;
53267;SDS011;39156;51.176;6.738;2023-09-30T10:56:26;33.20;;;31.20;;
53267;SDS011;39156;51.176;6.738;2023-09-30T10:58:59;34.22;;;32.13;;
53267;SDS011;39156;51.176;6.738;2023-09-30T11:01:31;32.75;;;30.75;;
53267;SDS011;39156;51.176;6.738;2023-09-30T11:04:02;32.88;;;30.88;;
53267;SDS011;39156;51.176;6.738;2023-09-30T11:06:30;32.33;;;30.42;;
53267;SDS011;39156;51.176;6.738;2023-09-30T11:08:57;33.13;;;31.02;;
53267;SDS011;39156;51.176;6.738;2023-09-30T11:11:41;32.85;;;30.90;;
53267;SDS011;39156;51.176;6.738;2023-09-30T11:14:23;33.13;;;30.92;;
53267;SDS011;39156;51.176;6.738;2023-09-30T11:16:57;33.55;;;31.45;;
53267;SDS011;39156;51.176;6.738;2023-09-30T11:19:27;33.05;;;31.15;;
53267;SDS011;39156;51.176;6.738;2023-09-30T11:22:15;32.38;;;30.45;;
53267;SDS011;39156;51.176;6.738;2023-09-30T11:24:41;33.20;;;31.17;;
53267;SDS011;39156;51.176;6.738;2023-09-30T11:27:07;30.73;;;29.02;;
53267;SDS011;39156;51.176;6.738;2023-09-30T11:29:34;32.83;;;30.88;;
53267;SDS011;39156;51.176;6.738;2023-09-30T11:31:59;32.97;;;30.98;;
53267;SDS011;39156;51.176;6.738;2023-09-30T11:34:31;33.65;;;31.45;;
53267;SDS011;39156;51.176;6.738;2023-09-30T11:36:58;33.08;;;30.77;;
53267;SDS011;39156;51.176;6.738;2023-09-30T11:39:27;33.63;;;31.33;;
53267;SDS011;39156;51.176;6.738;2023-09-30T11:41:54;34.45;;;32.45;;
53267;SDS011;39156;51.176;6.738;2023-09-30T11:44:22;33.30;;;31.25;;
53267;SDS011;39156;51.176;6.738;2023-09-30T11:51:57;34.55;;;32.00;;
53267;SDS011;39156;51.176;6.738;2023-09-30T11:54:30;33.97;;;31.90;;
53267;SDS011;39156;51.176;6.738;2023-09-30T11:57:06;33.50;;;31.30;;
53267;SDS011;39156;51.176;6.738;2023-09-30T11:59:36;32.50;;;30.60;;
53267;SDS011;39156;51.176;6.738;2023-09-30T12:02:04;33.08;;;31.08;;
53267;SDS011;39156;51.176;6.738;2023-09-30T12:04:34;32.47;;;30.38;;
53267;SDS011;39156;51.176;6.738;2023-09-30T12:07:00;32.40;;;30.55;;
53267;SDS011;39156;51.176;6.738;2023-09-30T12:09:26;32.13;;;30.25;;
53267;SDS011;39156;51.176;6.738;2023-09-30T12:11:53;33.33;;;31.33;;
53267;SDS011;39156;51.176;6.738;2023-09-30T12:14:20;34.33;;;32.42;;
53267;SDS011;39156;51.176;6.738;2023-09-30T12:16:46;32.90;;;31.00;;
53267;SDS011;39156;51.176;6.738;2023-09-30T12:19:18;33.55;;;31.55;;
53267;SDS011;39156;51.176;6.738;2023-09-30T12:21:45;33.17;;;31.08;;
53267;SDS011;39156;51.176;6.738;2023-09-30T12:24:13;33.13;;;31.23;;
53267;SDS011;39156;51.176;6.738;2023-09-30T12:26:47;32.72;;;30.85;;
53267;SDS011;39156;51.176;6.738;2023-09-30T12:29:14;32.70;;;30.70;;
53267;SDS011;39156;51.176;6.738;2023-09-30T12:31:46;33.95;;;31.73;;
53267;SDS011;39156;51.176;6.738;2023-09-30T12:34:17;33.75;;;31.55;;
53267;SDS011;39156;51.176;6.738;2023-09-30T12:36:43;33.20;;;31.20;;
53267;SDS011;39156;51.176;6.738;2023-09-30T12:39:10;32.97;;;30.98;;
53267;SDS011;39156;51.176;6.738;2023-09-30T12:41:45;34.67;;;32.45;;
53267;SDS011;39156;51.176;6.738;2023-09-30T12:44:11;33.63;;;31.73;;
53267;SDS011;39156;51.176;6.738;2023-09-30T12:46:37;32.60;;;30.80;;
53267;SDS011;39156;51.176;6.738;2023-09-30T12:49:04;33.92;;;31.98;;
53267;SDS011;39156;51.176;6.738;2023-09-30T12:51:34;32.92;;;31.02;;
53267;SDS011;39156;51.176;6.738;2023-09-30T12:54:01;34.10;;;32.20;;
53267;SDS011;39156;51.176;6.738;2023-09-30T12:58:57;32.80;;;30.90;;
53267;SDS011;39156;51.176;6.738;2023-09-30T13:03:49;34.28;;;32.28;;
53267;SDS011;39156;51.176;6.738;2023-09-30T13:06:15;33.95;;;31.67;;
53267;SDS011;39156;51.176;6.738;2023-09-30T13:08:41;32.60;;;30.80;;
53267;SDS011;39156;51.176;6.738;2023-09-30T13:11:07;34.05;;;31.95;;
53267;SDS011;39156;51.176;6.738;2023-09-30T13:13:33;33.85;;;31.88;;
53267;SDS011;39156;51.176;6.738;2023-09-30T13:16:00;33.03;;;31.08;;
53267;SDS011;39156;51.176;6.738;2023-09-30T13:20:52;32.83;;;30.95;;
53267;SDS011;39156;51.176;6.738;2023-09-30T13:23:18;33.67;;;31.75;;
53267;SDS011;39156;51.176;6.738;2023-09-30T13:25:47;32.67;;;30.83;;
53267;SDS011;39156;51.176;6.738;2023-09-30T13:28:13;32.30;;;30.42;;
53267;SDS011;39156;51.176;6.738;2023-09-30T13:30:39;33.25;;;31.35;;
53267;SDS011;39156;51.176;6.738;2023-09-30T13:33:05;32.40;;;30.70;;
53267;SDS011;39156;51.176;6.738;2023-09-30T13:35:31;32.20;;;30.27;;
53267;SDS011;39156;51.176;6.738;2023-09-30T13:37:57;34.35;;;32.55;;
53267;SDS011;39156;51.176;6.738;2023-09-30T13:40:23;32.97;;;31.17;;
53267;SDS011;39156;51.176;6.738;2023-09-30T13:42:49;32.60;;;30.90;;
53267;SDS011;39156;51.176;6.738;2023-09-30T13:45:15;32.67;;;30.67;;
53267;SDS011;39156;51.176;6.738;2023-09-30T13:47:44;33.28;;;31.40;;
53267;SDS011;39156;51.176;6.738;2023-09-30T13:50:10;34.00;;;32.10;;
53267;SDS011;39156;51.176;6.738;2023-09-30T13:52:35;34.25;;;32.15;;
53267;SDS011;39156;51.176;6.738;2023-09-30T13:55:02;33.25;;;31.35;;
53267;SDS011;39156;51.176;6.738;2023-09-30T13:57:29;32.72;;;30.83;;
53267;SDS011;39156;51.176;6.738;2023-09-30T13:59:56;33.83;;;31.83;;
53267;SDS011;39156;51.176;6.738;2023-09-30T14:04:48;34.22;;;32.25;;
53267;SDS011;39156;51.176;6.738;2023-09-30T14:07:14;34.85;;;32.85;;
53267;SDS011;39156;51.176;6.738;2023-09-30T14:09:40;33.40;;;31.50;;
53267;SDS011;39156;51.176;6.738;2023-09-30T14:12:05;33.17;;;31.30;;
53267;SDS011;39156;51.176;6.738;2023-09-30T14:14:32;33.78;;;31.88;;
53267;SDS011;39156;51.176;6.738;2023-09-30T14:17:02;33.45;;;31.55;;
53267;SDS011;39156;51.176;6.738;2023-09-30T14:19:35;34.58;;;32.75;;
53267;SDS011;39156;51.176;6.738;2023-09-30T14:22:02;33.60;;;31.70;;
53267;SDS011;39156;51.176;6.738;2023-09-30T14:24:30;34.35;;;32.35;;
53267;SDS011;39156;51.176;6.738;2023-09-30T14:26:58;34.10;;;32.20;;
53267;SDS011;39156;51.176;6.738;2023-09-30T14:29:24;33.42;;;31.63;;
53267;SDS011;39156;51.176;6.738;2023-09-30T14:31:50;34.30;;;32.30;;
53267;SDS011;39156;51.176;6.738;2023-09-30T14:34:16;33.50;;;31.67;;
53267;SDS011;39156;51.176;6.738;2023-09-30T14:36:42;34.75;;;32.75;;
53267;SDS011;39156;51.176;6.738;2023-09-30T14:39:09;33.60;;;31.63;;
53267;SDS011;39156;51.176;6.738;2023-09-30T14:41:35;34.28;;;32.38;;
53267;SDS011;39156;51.176;6.738;2023-09-30T14:44:01;34.70;;;32.70;;
53267;SDS011;39156;51.176;6.738;2023-09-30T14:46:32;33.83;;;31.83;;
53267;SDS011;39156;51.176;6.738;2023-09-30T14:49:02;33.95;;;31.95;;
53267;SDS011;39156;51.176;6.738;2023-09-30T14:51:27;34.75;;;32.85;;
53267;SDS011;39156;51.176;6.738;2023-09-30T14:53:53;34.27;;;32.33;;
53267;SDS011;39156;51.176;6.738;2023-09-30T14:56:19;36.45;;;34.25;;
53267;SDS011;39156;51.176;6.738;2023-09-30T14:58:45;34.67;;;32.77;;
53267;SDS011;39156;51.176;6.738;2023-09-30T15:01:11;34.00;;;32.10;;
53267;SDS011;39156;51.176;6.738;2023-09-30T15:03:37;34.25;;;32.35;;
53267;SDS011;39156;51.176;6.738;2023-09-30T15:06:04;34.00;;;32.20;;
53267;SDS011;39156;51.176;6.738;2023-09-30T15:08:31;35.25;;;33.25;;
53267;SDS011;39156;51.176;6.738;2023-09-30T15:10:58;33.70;;;31.80;;
53267;SDS011;39156;51.176;6.738;2023-09-30T15:13:24;33.42;;;31.63;;
53267;SDS011;39156;51.176;6.738;2023-09-30T15:15:51;35.08;;;32.97;;
53267;SDS011;39156;51.176;6.738;2023-09-30T15:18:16;34.25;;;31.88;;
53267;SDS011;39156;51.176;6.738;2023-09-30T15:20:42;34.13;;;32.25;;